Time;durP1;ratioP1;P1;durP2;ratioP2;P2;SDS_P1;SDS_P2;PMS_P1;PMS_P2;Temp;Humidity;BMP_temperature;BMP_pressure;BME280_temperature;BME280_humidity;BME280_pressure;Samples;Min_cycle;Max_cycle;Signal;HPM_P1;HPM_P2
2022/04/24 00:01:06;;;;;;;;;;;10.70;99.90;;;;;;5114822;28;19916;-65
2022/04/24 00:03:33;;;;;;;;;;;10.60;99.90;;;;;;5114545;28;19919;-65
2022/04/24 00:05:58;;;;;;;;;;;10.70;99.90;;;;;;5114725;28;19927;-64
2022/04/24 00:08:24;;;;;;;;;;;10.60;99.90;;;;;;5114848;28;19916;-64
2022/04/24 00:10:50;;;;;;;;;;;10.60;99.90;;;;;;5114431;28;19916;-64
2022/04/24 00:13:16;;;;;;;;;;;10.60;99.90;;;;;;5114776;28;19916;-64
2022/04/24 00:15:41;;;;;;;;;;;10.50;99.90;;;;;;5114495;28;19922;-64
2022/04/24 00:18:07;;;;;;;;;;;10.50;99.90;;;;;;5114757;28;19923;-64
2022/04/24 00:20:32;;;;;;;;;;;10.50;99.90;;;;;;5114555;28;19941;-65
2022/04/24 00:22:58;;;;;;;;;;;10.50;99.90;;;;;;5114646;28;19919;-64
2022/04/24 00:25:23;;;;;;;;;;;10.40;99.90;;;;;;5113307;27;19922;-64
2022/04/24 00:27:49;;;;;;;;;;;10.40;99.90;;;;;;5114495;28;20000;-64
2022/04/24 00:30:15;;;;;;;;;;;10.30;99.90;;;;;;5114265;28;19916;-64
2022/04/24 00:32:40;;;;;;;;;;;10.30;99.90;;;;;;5114080;28;20340;-64
2022/04/24 00:35:06;;;;;;;;;;;10.30;99.90;;;;;;5114528;28;20003;-66
2022/04/24 00:37:31;;;;;;;;;;;10.30;99.90;;;;;;5114171;28;19916;-64
2022/04/24 00:39:57;;;;;;;;;;;10.40;99.90;;;;;;5113719;28;19916;-64
2022/04/24 00:42:22;;;;;;;;;;;10.20;99.90;;;;;;5114321;28;19923;-64
2022/04/24 00:44:48;;;;;;;;;;;10.20;99.90;;;;;;5114144;28;19977;-64
2022/04/24 00:47:16;;;;;;;;;;;10.20;99.90;;;;;;5114321;28;19916;-64
2022/04/24 00:49:42;;;;;;;;;;;10.10;99.90;;;;;;5113944;28;19915;-64
2022/04/24 00:52:08;;;;;;;;;;;10.20;99.90;;;;;;5113858;28;19915;-64
2022/04/24 00:54:34;;;;;;;;;;;10.10;99.90;;;;;;5113570;28;19920;-64
2022/04/24 00:57:00;;;;;;;;;;;10.10;99.90;;;;;;5113735;28;19915;-64
2022/04/24 00:59:25;;;;;;;;;;;10.10;99.90;;;;;;5113997;28;19919;-64
2022/04/24 01:01:51;;;;;;;;;;;10.10;99.90;;;;;;5113673;28;19960;-64
2022/04/24 01:04:18;;;;;;;;;;;10.10;99.90;;;;;;5112364;28;19964;-64
2022/04/24 01:06:43;;;;;;;;;;;10.10;99.90;;;;;;5113672;28;19916;-64
2022/04/24 01:09:09;;;;;;;;;;;10.10;99.90;;;;;;5113515;28;19915;-64
2022/04/24 01:11:35;;;;;;;;;;;10.10;99.90;;;;;;5113486;28;19916;-64
2022/04/24 01:14:01;;;;;;;;;;;10.00;99.90;;;;;;5113615;28;19916;-63
2022/04/24 01:16:26;;;;;;;;;;;10.10;99.90;;;;;;5113535;28;19919;-64
2022/04/24 01:18:52;;;;;;;;;;;10.00;99.90;;;;;;5113727;28;20042;-64
2022/04/24 01:21:18;;;;;;;;;;;10.00;99.90;;;;;;5112188;28;20457;-64
2022/04/24 01:23:43;;;;;;;;;;;10.10;99.90;;;;;;5113144;28;19924;-64
2022/04/24 01:26:09;;;;;;;;;;;9.90;99.90;;;;;;5111938;28;19916;-64
2022/04/24 01:28:34;;;;;;;;;;;9.90;99.90;;;;;;5112116;28;19915;-64
2022/04/24 01:31:00;;;;;;;;;;;9.90;99.90;;;;;;5112951;28;19915;-63
2022/04/24 01:33:26;;;;;;;;;;;9.90;99.90;;;;;;5111888;28;20007;-64
2022/04/24 01:35:51;;;;;;;;;;;9.80;99.90;;;;;;5113285;28;19963;-64
2022/04/24 01:38:17;;;;;;;;;;;9.80;99.90;;;;;;5113221;28;19955;-64
2022/04/24 01:40:42;;;;;;;;;;;9.80;99.90;;;;;;5113066;28;20359;-64
2022/04/24 01:43:08;;;;;;;;;;;9.70;99.90;;;;;;5112772;28;19920;-64
2022/04/24 01:45:34;;;;;;;;;;;9.80;99.90;;;;;;5112893;28;19916;-62
2022/04/24 01:47:59;;;;;;;;;;;9.70;99.90;;;;;;5112775;28;19922;-61
2022/04/24 01:50:25;;;;;;;;;;;9.80;99.90;;;;;;5112858;28;19998;-62
2022/04/24 01:52:50;;;;;;;;;;;9.70;99.90;;;;;;5112757;28;19919;-62
2022/04/24 01:55:18;;;;;;;;;;;9.70;99.90;;;;;;5111781;28;20433;-61
2022/04/24 01:57:44;;;;;;;;;;;9.60;99.90;;;;;;5116902;28;19970;-61
2022/04/24 02:00:10;;;;;;;;;;;9.60;99.90;;;;;;5117256;27;20362;-62
2022/04/24 02:02:35;;;;;;;;;;;9.60;99.90;;;;;;5116727;28;19922;-62
2022/04/24 02:05:01;;;;;;;;;;;9.50;99.90;;;;;;5116731;28;19920;-62
2022/04/24 02:07:28;;;;;;;;;;;9.60;99.90;;;;;;5116528;28;20384;-62
2022/04/24 02:09:53;;;;;;;;;;;9.50;99.90;;;;;;5116467;28;19915;-61
2022/04/24 02:12:19;;;;;;;;;;;9.50;99.90;;;;;;5115271;28;20319;-62
2022/04/24 02:14:44;;;;;;;;;;;9.30;99.90;;;;;;5116392;28;20304;-61
2022/04/24 02:17:10;;;;;;;;;;;9.40;99.90;;;;;;5116463;28;19969;-61
2022/04/24 02:19:36;;;;;;;;;;;9.30;99.90;;;;;;5116319;28;19959;-61
2022/04/24 02:22:02;;;;;;;;;;;9.20;99.90;;;;;;5116369;28;19922;-61
2022/04/24 02:24:27;;;;;;;;;;;9.20;99.90;;;;;;5116112;28;19920;-61
2022/04/24 02:26:53;;;;;;;;;;;9.20;99.90;;;;;;5116123;28;19966;-62
2022/04/24 02:29:19;;;;;;;;;;;9.10;99.90;;;;;;5116296;28;19915;-61
2022/04/24 02:31:44;;;;;;;;;;;9.00;99.90;;;;;;5115167;28;20277;-61
2022/04/24 02:34:10;;;;;;;;;;;9.00;99.90;;;;;;5116146;28;19915;-61
2022/04/24 02:36:36;;;;;;;;;;;9.00;99.90;;;;;;5116279;28;19945;-61
2022/04/24 02:39:01;;;;;;;;;;;8.90;99.90;;;;;;5116212;28;20277;-61
2022/04/24 02:41:27;;;;;;;;;;;8.90;99.90;;;;;;5115858;28;20335;-61
2022/04/24 02:43:52;;;;;;;;;;;8.80;99.90;;;;;;5115796;27;19920;-61
2022/04/24 02:46:18;;;;;;;;;;;9.10;99.90;;;;;;5115768;28;19920;-61
2022/04/24 02:48:43;;;;;;;;;;;8.80;99.90;;;;;;5116031;28;19916;-62
2022/04/24 02:51:09;;;;;;;;;;;8.70;99.90;;;;;;5115714;28;19922;-61
2022/04/24 02:53:34;;;;;;;;;;;8.70;99.90;;;;;;5114296;28;20060;-61
2022/04/24 02:56:00;;;;;;;;;;;8.70;99.90;;;;;;5116000;28;20265;-61
2022/04/24 02:58:26;;;;;;;;;;;8.70;99.90;;;;;;5115725;28;19923;-62
2022/04/24 03:00:53;;;;;;;;;;;8.60;99.90;;;;;;5115708;28;19938;-62
2022/04/24 03:03:18;;;;;;;;;;;8.60;99.90;;;;;;5115431;28;20377;-61
2022/04/24 03:05:45;;;;;;;;;;;8.50;99.90;;;;;;5115528;28;19922;-61
2022/04/24 03:08:11;;;;;;;;;;;8.50;99.90;;;;;;5114019;28;20386;-61
2022/04/24 03:10:37;;;;;;;;;;;8.50;99.90;;;;;;5113938;28;19946;-61
2022/04/24 03:13:02;;;;;;;;;;;8.50;99.90;;;;;;5114036;27;19916;-61
2022/04/24 03:15:28;;;;;;;;;;;8.50;99.90;;;;;;5114026;28;19926;-62
2022/04/24 03:17:54;;;;;;;;;;;8.40;99.90;;;;;;5115633;28;19972;-61
2022/04/24 03:20:20;;;;;;;;;;;8.40;99.90;;;;;;5115400;27;19958;-61
2022/04/24 03:22:46;;;;;;;;;;;8.30;99.90;;;;;;5115372;28;19924;-61
2022/04/24 03:25:11;;;;;;;;;;;8.30;99.90;;;;;;5115040;28;20285;-61
2022/04/24 03:27:37;;;;;;;;;;;8.30;99.90;;;;;;5115394;28;19916;-61
2022/04/24 03:30:03;;;;;;;;;;;8.30;99.90;;;;;;5115105;28;19968;-61
2022/04/24 03:32:30;;;;;;;;;;;8.30;99.90;;;;;;5115123;28;19916;-61
2022/04/24 03:34:56;;;;;;;;;;;8.30;99.90;;;;;;5115004;28;19938;-62
2022/04/24 03:37:21;;;;;;;;;;;8.20;99.90;;;;;;5114922;28;20381;-61
2022/04/24 03:39:47;;;;;;;;;;;8.20;99.90;;;;;;5113379;28;20270;-61
2022/04/24 03:42:12;;;;;;;;;;;8.20;99.90;;;;;;5113935;28;19916;-61
2022/04/24 03:44:38;;;;;;;;;;;8.70;99.90;;;;;;5113428;28;19924;-61
2022/04/24 03:47:03;;;;;;;;;;;8.20;99.90;;;;;;5114738;28;19915;-61
2022/04/24 03:49:29;;;;;;;;;;;8.20;99.90;;;;;;5114655;28;19922;-61
2022/04/24 03:51:54;;;;;;;;;;;8.10;99.90;;;;;;5114749;28;19915;-62
2022/04/24 03:54:20;;;;;;;;;;;8.10;99.90;;;;;;5114301;28;19924;-61
2022/04/24 03:56:46;;;;;;;;;;;8.10;99.90;;;;;;5114675;28;19927;-61
2022/04/24 03:59:11;;;;;;;;;;;8.10;99.90;;;;;;5114793;28;19924;-61
2022/04/24 04:01:37;;;;;;;;;;;8.00;99.90;;;;;;5114713;28;19919;-61
2022/04/24 04:04:03;;;;;;;;;;;8.00;99.90;;;;;;5114375;28;19920;-61
2022/04/24 04:06:28;;;;;;;;;;;8.00;99.90;;;;;;5114312;28;19926;-61
2022/04/24 04:08:54;;;;;;;;;;;8.00;99.90;;;;;;5114817;28;19916;-61
2022/04/24 04:11:19;;;;;;;;;;;8.00;99.90;;;;;;5114247;28;19916;-61
2022/04/24 04:13:45;;;;;;;;;;;7.90;99.90;;;;;;5114409;28;19923;-61
2022/04/24 04:16:10;;;;;;;;;;;7.90;99.90;;;;;;5114016;28;19919;-62
2022/04/24 04:18:36;;;;;;;;;;;7.90;99.90;;;;;;5113879;28;19916;-61
2022/04/24 04:21:01;;;;;;;;;;;7.90;99.90;;;;;;5114295;28;19985;-61
2022/04/24 04:23:27;;;;;;;;;;;7.80;99.90;;;;;;5112628;28;19926;-61
2022/04/24 04:25:52;;;;;;;;;;;7.90;99.90;;;;;;5113932;28;19930;-61
2022/04/24 04:28:18;;;;;;;;;;;7.80;99.90;;;;;;5113970;28;19964;-61
2022/04/24 04:30:43;;;;;;;;;;;7.80;99.90;;;;;;5113915;28;19923;-61
2022/04/24 04:33:09;;;;;;;;;;;7.80;99.90;;;;;;5113877;28;19916;-62
2022/04/24 04:35:35;;;;;;;;;;;7.80;99.90;;;;;;5114005;28;20452;-61
2022/04/24 04:38:01;;;;;;;;;;;7.80;99.90;;;;;;5113795;28;19929;-62
2022/04/24 04:40:26;;;;;;;;;;;7.80;99.90;;;;;;5113787;28;19915;-62
2022/04/24 04:42:52;;;;;;;;;;;7.80;99.90;;;;;;5113704;28;20385;-62
2022/04/24 04:45:17;;;;;;;;;;;7.80;99.90;;;;;;5113584;28;20060;-61
2022/04/24 04:47:43;;;;;;;;;;;7.80;99.90;;;;;;5113519;28;19969;-62
2022/04/24 04:50:09;;;;;;;;;;;7.80;99.90;;;;;;5113424;28;19919;-61
2022/04/24 04:52:35;;;;;;;;;;;7.80;99.90;;;;;;5113581;27;19919;-61
2022/04/24 04:55:01;;;;;;;;;;;7.80;99.90;;;;;;5111775;28;19920;-61
2022/04/24 04:57:27;;;;;;;;;;;7.90;99.90;;;;;;5113335;28;19922;-62
2022/04/24 04:59:52;;;;;;;;;;;8.00;99.90;;;;;;5111947;28;19915;-61
2022/04/24 05:02:18;;;;;;;;;;;7.90;99.90;;;;;;5113182;28;19988;-62
2022/04/24 05:04:43;;;;;;;;;;;8.00;99.90;;;;;;5113047;28;19919;-61
2022/04/24 05:07:10;;;;;;;;;;;8.00;99.90;;;;;;5113111;28;19922;-62
2022/04/24 05:09:35;;;;;;;;;;;8.10;99.90;;;;;;5112051;28;20010;-61
2022/04/24 05:12:01;;;;;;;;;;;8.10;99.90;;;;;;5113094;28;20002;-62
2022/04/24 05:14:26;;;;;;;;;;;8.10;99.90;;;;;;5113220;28;19920;-61
2022/04/24 05:16:52;;;;;;;;;;;8.10;99.90;;;;;;5113293;28;20430;-61
2022/04/24 05:19:17;;;;;;;;;;;8.10;99.90;;;;;;5111973;27;19919;-61
2022/04/24 05:21:43;;;;;;;;;;;8.10;99.90;;;;;;5112788;28;19923;-62
2022/04/24 05:24:08;;;;;;;;;;;8.10;99.90;;;;;;5112810;28;20281;-62
2022/04/24 05:26:34;;;;;;;;;;;8.10;99.90;;;;;;5113056;28;19977;-61
2022/04/24 05:28:59;;;;;;;;;;;8.20;99.90;;;;;;5113006;28;19915;-62
2022/04/24 05:31:25;;;;;;;;;;;8.20;99.90;;;;;;5112179;28;20034;-62
2022/04/24 05:33:51;;;;;;;;;;;8.20;99.90;;;;;;5112805;28;20292;-62
2022/04/24 05:36:16;;;;;;;;;;;8.20;99.90;;;;;;5112739;28;19916;-61
2022/04/24 05:38:42;;;;;;;;;;;8.30;99.90;;;;;;5112974;28;19915;-62
2022/04/24 05:41:07;;;;;;;;;;;8.30;99.90;;;;;;5112829;28;19916;-61
2022/04/24 05:43:33;;;;;;;;;;;8.30;99.90;;;;;;5112688;28;19926;-61
2022/04/24 05:45:58;;;;;;;;;;;8.30;99.90;;;;;;5112726;28;19926;-62
2022/04/24 05:48:24;;;;;;;;;;;8.40;99.90;;;;;;5112813;28;19926;-62
2022/04/24 05:50:49;;;;;;;;;;;8.40;99.90;;;;;;5112800;28;20805;-62
2022/04/24 05:53:15;;;;;;;;;;;8.50;99.90;;;;;;5112750;28;20400;-62
2022/04/24 05:55:40;;;;;;;;;;;8.50;99.90;;;;;;5112373;28;20435;-62
2022/04/24 05:58:06;;;;;;;;;;;8.60;99.90;;;;;;5112742;28;19967;-62
2022/04/24 06:00:32;;;;;;;;;;;8.60;99.90;;;;;;5112406;28;19994;-62
2022/04/24 06:02:57;;;;;;;;;;;8.80;99.90;;;;;;5112402;28;19916;-62
2022/04/24 06:05:23;;;;;;;;;;;9.10;99.90;;;;;;5112483;28;19920;-64
2022/04/24 06:07:49;;;;;;;;;;;9.20;99.90;;;;;;5113151;28;19915;-64
2022/04/24 06:10:15;;;;;;;;;;;9.30;99.90;;;;;;5112627;28;20366;-64
2022/04/24 06:12:46;;;;;;;;;;;9.40;99.90;;;;;;5112810;28;20005;-64
2022/04/24 06:15:15;;;;;;;;;;;9.70;99.90;;;;;;5112813;28;19962;-65
2022/04/24 06:17:41;;;;;;;;;;;9.80;99.90;;;;;;5113030;28;19920;-64
2022/04/24 06:20:08;;;;;;;;;;;10.00;99.90;;;;;;5112873;28;19923;-64
2022/04/24 06:22:45;;;;;;;;;;;10.10;99.90;;;;;;5112625;28;19923;-65
2022/04/24 06:25:17;;;;;;;;;;;10.20;99.90;;;;;;5112481;28;19920;-64
2022/04/24 06:27:44;;;;;;;;;;;10.40;99.90;;;;;;5112545;28;19974;-64
2022/04/24 06:30:11;;;;;;;;;;;10.60;99.90;;;;;;5112275;28;20010;-62
2022/04/24 06:32:38;;;;;;;;;;;10.60;99.90;;;;;;5110774;28;19919;-62
2022/04/24 06:35:04;;;;;;;;;;;10.70;99.90;;;;;;5112292;28;19941;-62
2022/04/24 06:37:30;;;;;;;;;;;10.80;99.90;;;;;;5112365;28;19916;-61
2022/04/24 06:39:55;;;;;;;;;;;11.00;99.90;;;;;;5112187;28;19915;-61
2022/04/24 06:42:21;;;;;;;;;;;11.10;99.90;;;;;;5113682;28;19920;-61
2022/04/24 06:44:47;;;;;;;;;;;11.20;99.90;;;;;;5114561;28;19926;-60
2022/04/24 06:47:12;;;;;;;;;;;11.40;99.90;;;;;;5115908;28;19915;-61
2022/04/24 06:49:38;;;;;;;;;;;11.40;99.90;;;;;;5114903;28;20300;-61
2022/04/24 06:52:03;;;;;;;;;;;11.50;99.90;;;;;;5115159;28;19915;-61
2022/04/24 06:54:29;;;;;;;;;;;11.60;99.90;;;;;;5115569;28;19926;-61
2022/04/24 06:56:54;;;;;;;;;;;12.00;99.90;;;;;;5097708;28;20273;-62
2022/04/24 06:59:20;;;;;;;;;;;12.00;99.90;;;;;;5115635;28;19916;-61
2022/04/24 07:01:45;;;;;;;;;;;12.20;99.90;;;;;;5115542;28;20003;-61
2022/04/24 07:04:11;;;;;;;;;;;12.30;99.90;;;;;;5115467;28;19919;-61
2022/04/24 07:06:36;;;;;;;;;;;12.40;99.90;;;;;;5115603;28;19969;-62
2022/04/24 07:09:02;;;;;;;;;;;12.50;99.90;;;;;;5115524;28;20006;-62
2022/04/24 07:11:27;;;;;;;;;;;12.70;99.90;;;;;;5115373;28;19922;-62
2022/04/24 07:13:53;;;;;;;;;;;12.80;99.90;;;;;;5114089;28;19923;-62
2022/04/24 07:16:18;;;;;;;;;;;13.40;99.90;;;;;;5115202;28;19919;-62
2022/04/24 07:18:44;;;;;;;;;;;13.40;99.90;;;;;;5115414;28;19919;-62
2022/04/24 07:21:09;;;;;;;;;;;13.40;99.90;;;;;;5114988;28;19915;-62
2022/04/24 07:23:35;;;;;;;;;;;13.60;99.90;;;;;;5115483;28;20014;-62
2022/04/24 07:26:01;;;;;;;;;;;13.50;99.90;;;;;;5115200;28;20254;-62
2022/04/24 07:28:26;;;;;;;;;;;13.80;99.90;;;;;;5115149;28;19916;-62
2022/04/24 07:30:52;;;;;;;;;;;14.00;99.90;;;;;;5114933;28;19938;-61
2022/04/24 07:33:17;;;;;;;;;;;14.10;99.90;;;;;;5115210;28;19920;-61
2022/04/24 07:35:43;;;;;;;;;;;14.20;99.90;;;;;;5114985;28;20384;-62
2022/04/24 07:38:09;;;;;;;;;;;14.40;99.90;;;;;;5114827;28;19972;-62
2022/04/24 07:40:39;;;;;;;;;;;14.80;99.90;;;;;;5114957;28;19915;-62
2022/04/24 07:43:05;;;;;;;;;;;14.80;99.90;;;;;;5114761;28;19938;-62
2022/04/24 07:45:35;;;;;;;;;;;14.70;99.90;;;;;;5114758;28;20281;-61
2022/04/24 07:48:01;;;;;;;;;;;14.80;99.90;;;;;;5114707;28;19974;-61
2022/04/24 07:50:28;;;;;;;;;;;15.30;99.90;;;;;;5114732;28;19922;-61
2022/04/24 07:52:54;;;;;;;;;;;15.10;99.90;;;;;;5113465;28;19938;-62
2022/04/24 07:55:22;;;;;;;;;;;15.30;99.90;;;;;;5113667;28;20358;-61
2022/04/24 07:57:48;;;;;;;;;;;15.30;99.90;;;;;;5114440;28;20254;-61
2022/04/24 08:00:14;;;;;;;;;;;15.40;99.90;;;;;;5114370;28;19925;-61
2022/04/24 08:02:46;;;;;;;;;;;15.40;99.90;;;;;;5146989;27;20332;-61
2022/04/24 08:05:12;;;;;;;;;;;15.50;99.90;;;;;;5114293;28;19934;-61
2022/04/24 08:07:38;;;;;;;;;;;15.90;99.90;;;;;;5114255;28;19915;-61
2022/04/24 08:10:03;;;;;;;;;;;15.60;99.90;;;;;;5114175;28;19923;-61
2022/04/24 08:12:29;;;;;;;;;;;15.90;99.90;;;;;;5114080;27;19916;-61
2022/04/24 08:14:54;;;;;;;;;;;16.00;99.90;;;;;;5114043;28;19945;-61
2022/04/24 08:17:20;;;;;;;;;;;16.10;99.70;;;;;;5114218;27;19960;-61
2022/04/24 08:19:45;;;;;;;;;;;16.10;99.80;;;;;;5114052;28;19931;-61
2022/04/24 08:22:11;;;;;;;;;;;16.30;99.70;;;;;;5112985;28;19915;-61
2022/04/24 08:24:36;;;;;;;;;;;16.20;99.90;;;;;;5113841;28;19927;-61
2022/04/24 08:27:02;;;;;;;;;;;16.40;99.20;;;;;;5112507;28;19966;-61
2022/04/24 08:29:28;;;;;;;;;;;16.60;98.70;;;;;;5114069;28;20002;-61
2022/04/24 08:31:53;;;;;;;;;;;16.80;98.80;;;;;;5113936;28;19916;-61
2022/04/24 08:34:19;;;;;;;;;;;17.00;98.60;;;;;;5113894;28;19916;-61
2022/04/24 08:36:44;;;;;;;;;;;17.30;99.30;;;;;;5113972;28;19926;-61
2022/04/24 08:39:10;;;;;;;;;;;17.40;98.60;;;;;;5112458;28;20380;-61
2022/04/24 08:41:38;;;;;;;;;;;17.60;98.20;;;;;;5114096;28;19915;-61
2022/04/24 08:44:06;;;;;;;;;;;17.60;98.10;;;;;;5113462;27;19926;-59
2022/04/24 08:46:32;;;;;;;;;;;17.70;97.80;;;;;;5113974;28;20005;-59
2022/04/24 08:48:58;;;;;;;;;;;17.80;97.30;;;;;;5113650;28;20365;-59
2022/04/24 08:51:24;;;;;;;;;;;18.00;97.90;;;;;;5113500;28;19915;-59
2022/04/24 08:53:50;;;;;;;;;;;18.00;97.00;;;;;;5113341;28;19969;-59
2022/04/24 08:56:16;;;;;;;;;;;18.20;97.10;;;;;;5111321;28;19916;-59
2022/04/24 08:58:42;;;;;;;;;;;18.10;96.70;;;;;;5113302;28;19915;-59
2022/04/24 09:01:08;;;;;;;;;;;18.00;97.40;;;;;;5113263;28;19990;-59
2022/04/24 09:03:33;;;;;;;;;;;18.30;97.10;;;;;;5113068;28;19926;-59
2022/04/24 09:05:59;;;;;;;;;;;18.50;97.50;;;;;;5112251;28;19922;-59
2022/04/24 09:08:24;;;;;;;;;;;18.60;97.00;;;;;;5113136;28;19915;-59
2022/04/24 09:10:51;;;;;;;;;;;18.30;96.60;;;;;;5113086;28;19916;-59
2022/04/24 09:13:27;;;;;;;;;;;18.10;96.90;;;;;;5113254;28;19916;-59
2022/04/24 09:15:56;;;;;;;;;;;18.10;96.80;;;;;;5113111;28;20010;-59
2022/04/24 09:18:22;;;;;;;;;;;18.60;96.70;;;;;;5113150;28;19916;-59
2022/04/24 09:20:53;;;;;;;;;;;18.80;96.30;;;;;;5113244;28;19922;-59
2022/04/24 09:23:20;;;;;;;;;;;19.00;96.70;;;;;;5112642;28;20360;-59
2022/04/24 09:25:46;;;;;;;;;;;19.30;97.30;;;;;;5112953;28;19945;-59
2022/04/24 09:28:11;;;;;;;;;;;19.50;96.00;;;;;;5113184;28;20345;-59
2022/04/24 09:30:47;;;;;;;;;;;19.50;96.10;;;;;;5113049;28;19926;-59
2022/04/24 09:33:14;;;;;;;;;;;19.00;96.00;;;;;;5112636;28;20366;-58
2022/04/24 09:35:41;;;;;;;;;;;18.80;96.10;;;;;;5112541;28;19919;-58
2022/04/24 09:38:07;;;;;;;;;;;19.30;95.40;;;;;;5112687;28;19915;-60
2022/04/24 09:40:44;;;;;;;;;;;19.20;95.50;;;;;;5112910;28;19916;-59
2022/04/24 09:43:10;;;;;;;;;;;19.80;94.60;;;;;;5112630;28;19922;-59
2022/04/24 09:45:37;;;;;;;;;;;19.90;94.50;;;;;;5112778;28;20335;-59
2022/04/24 09:48:10;;;;;;;;;;;19.70;94.50;;;;;;5112654;28;20297;-63
2022/04/24 09:50:35;;;;;;;;;;;19.20;94.30;;;;;;5112812;28;20380;-63
2022/04/24 09:53:02;;;;;;;;;;;19.00;94.30;;;;;;5113294;28;20370;-63
2022/04/24 09:55:28;;;;;;;;;;;19.10;95.20;;;;;;5112686;28;19927;-64
2022/04/24 09:57:54;;;;;;;;;;;19.10;94.90;;;;;;5112822;28;19916;-64
2022/04/24 10:00:20;;;;;;;;;;;19.00;95.30;;;;;;5112650;28;19927;-64
2022/04/24 10:02:47;;;;;;;;;;;19.30;95.10;;;;;;5111693;28;19928;-58
2022/04/24 10:05:14;;;;;;;;;;;19.10;95.50;;;;;;5112597;28;19978;-59
2022/04/24 10:07:40;;;;;;;;;;;20.70;93.00;;;;;;5112643;28;19922;-60
2022/04/24 10:10:07;;;;;;;;;;;22.40;93.10;;;;;;5111226;28;19916;-60
2022/04/24 10:12:33;;;;;;;;;;;22.80;91.60;;;;;;5112743;28;19919;-60
2022/04/24 10:15:01;;;;;;;;;;;22.20;90.80;;;;;;5112652;28;19972;-60
2022/04/24 10:17:32;;;;;;;;;;;22.60;90.60;;;;;;5114155;28;19915;-60
2022/04/24 10:20:18;;;;;;;;;;;22.90;91.10;;;;;;5116635;28;20388;-60
2022/04/24 10:22:47;;;;;;;;;;;23.50;90.40;;;;;;5116411;28;19919;-61
2022/04/24 10:25:15;;;;;;;;;;;24.30;89.30;;;;;;5116656;28;19919;-61
2022/04/24 10:27:40;;;;;;;;;;;24.80;88.90;;;;;;5116656;28;19920;-60
2022/04/24 10:30:06;;;;;;;;;;;25.20;86.40;;;;;;5106316;28;19923;-60
2022/04/24 10:32:32;;;;;;;;;;;25.50;84.40;;;;;;5096236;28;19924;-61
2022/04/24 10:35:01;;;;;;;;;;;25.10;84.70;;;;;;5095630;28;20370;-61
2022/04/24 10:37:27;;;;;;;;;;;24.40;83.50;;;;;;5108643;28;19966;-60
2022/04/24 10:39:58;;;;;;;;;;;24.20;84.90;;;;;;5075965;28;19916;-60
2022/04/24 10:42:29;;;;;;;;;;;23.10;83.50;;;;;;5074570;28;19921;-60
2022/04/24 10:44:55;;;;;;;;;;;23.70;86.00;;;;;;5075721;28;20065;-60
2022/04/24 10:47:21;;;;;;;;;;;24.00;83.40;;;;;;5075846;28;20016;-59
2022/04/24 10:49:46;;;;;;;;;;;25.00;84.80;;;;;;5076079;28;19916;-59
2022/04/24 10:52:12;;;;;;;;;;;25.10;83.30;;;;;;5075877;28;20329;-59
2022/04/24 10:54:38;;;;;;;;;;;24.30;80.90;;;;;;5075537;28;19939;-60
2022/04/24 10:57:18;;;;;;;;;;;24.00;81.30;;;;;;5075581;28;20286;-60
2022/04/24 10:59:52;;;;;;;;;;;24.10;79.90;;;;;;5094266;28;20381;-60
2022/04/24 11:02:22;;;;;;;;;;;24.60;80.70;;;;;;5094958;28;20430;-60
2022/04/24 11:04:56;;;;;;;;;;;25.60;80.50;;;;;;5095172;28;20357;-60
2022/04/24 11:07:21;;;;;;;;;;;24.30;79.90;;;;;;5095144;28;20396;-60
2022/04/24 11:09:47;;;;;;;;;;;25.80;81.10;;;;;;5095268;28;19915;-60
2022/04/24 11:12:12;;;;;;;;;;;26.90;81.70;;;;;;5095137;28;19922;-60
2022/04/24 11:14:38;;;;;;;;;;;26.50;81.70;;;;;;5095526;28;19981;-61
2022/04/24 11:17:05;;;;;;;;;;;26.80;80.70;;;;;;5095417;28;20412;-60
2022/04/24 11:19:31;;;;;;;;;;;26.50;80.70;;;;;;5094900;28;19923;-60
2022/04/24 11:21:58;;;;;;;;;;;26.70;80.40;;;;;;5095162;28;20328;-60
2022/04/24 11:24:24;;;;;;;;;;;26.40;78.80;;;;;;5094079;28;20342;-60
2022/04/24 11:26:49;;;;;;;;;;;26.00;79.60;;;;;;5095489;28;20018;-59
2022/04/24 11:29:15;;;;;;;;;;;26.30;79.00;;;;;;5093996;28;20007;-59
2022/04/24 11:31:47;;;;;;;;;;;25.90;78.20;;;;;;5093695;28;19969;-58
2022/04/24 11:34:15;;;;;;;;;;;26.50;78.10;;;;;;5091022;28;20297;-59
2022/04/24 11:36:41;;;;;;;;;;;25.10;77.90;;;;;;5093227;28;19915;-60
2022/04/24 11:39:09;;;;;;;;;;;25.10;79.40;;;;;;5094877;28;20430;-59
2022/04/24 11:41:35;;;;;;;;;;;25.50;78.80;;;;;;5094784;28;20272;-59
2022/04/24 11:44:01;;;;;;;;;;;26.50;80.40;;;;;;5094903;28;19920;-59
2022/04/24 11:51:54;;;;;;;;;;;27.40;79.30;;;;;;5094947;28;19916;-61
2022/04/24 11:54:20;;;;;;;;;;;26.00;77.20;;;;;;5093482;28;19926;-60
2022/04/24 11:56:50;;;;;;;;;;;26.80;78.50;;;;;;5094833;28;19920;-60
2022/04/24 11:59:17;;;;;;;;;;;26.70;78.40;;;;;;5094681;28;19952;-60
2022/04/24 12:01:43;;;;;;;;;;;26.70;77.30;;;;;;5094784;28;19916;-61
2022/04/24 12:04:15;;;;;;;;;;;26.80;79.00;;;;;;5094667;28;19946;-60
2022/04/24 12:06:40;;;;;;;;;;;27.10;78.40;;;;;;5094920;28;19969;-60
2022/04/24 12:09:07;;;;;;;;;;;26.50;78.00;;;;;;5094579;28;19919;-61
2022/04/24 12:11:33;;;;;;;;;;;26.70;77.10;;;;;;5078802;28;19915;-60
2022/04/24 12:13:58;;;;;;;;;;;27.20;76.50;;;;;;5094161;28;19927;-59
2022/04/24 12:16:24;;;;;;;;;;;25.00;77.80;;;;;;5093801;28;19916;-65
2022/04/24 12:18:54;;;;;;;;;;;23.60;78.10;;;;;;5093818;28;19923;-59
2022/04/24 12:21:19;;;;;;;;;;;23.20;80.20;;;;;;5092973;28;19916;-64
2022/04/24 12:23:49;;;;;;;;;;;22.60;83.00;;;;;;5093843;28;19920;-60
2022/04/24 12:26:14;;;;;;;;;;;22.10;82.60;;;;;;5093631;28;20435;-66
2022/04/24 12:28:40;;;;;;;;;;;21.50;82.60;;;;;;5094118;28;19960;-65
2022/04/24 12:31:06;;;;;;;;;;;21.10;83.20;;;;;;5094148;28;20392;-65
2022/04/24 12:33:32;;;;;;;;;;;20.80;85.50;;;;;;5094190;28;20277;-65
2022/04/24 12:36:08;;;;;;;;;;;20.60;86.00;;;;;;5093767;28;20377;-65
2022/04/24 12:38:33;;;;;;;;;;;20.40;85.30;;;;;;5094028;28;19920;-60
2022/04/24 12:40:59;;;;;;;;;;;20.30;86.50;;;;;;5093583;28;19916;-60
2022/04/24 12:43:29;;;;;;;;;;;20.00;86.80;;;;;;5093426;28;19916;-60
2022/04/24 12:45:57;;;;;;;;;;;19.80;85.70;;;;;;5094288;28;19922;-66
2022/04/24 12:48:24;;;;;;;;;;;19.30;86.30;;;;;;5094548;28;19967;-67
2022/04/24 12:50:50;;;;;;;;;;;19.10;88.40;;;;;;5094183;28;19973;-66
2022/04/24 12:53:16;;;;;;;;;;;19.10;87.20;;;;;;5094439;28;19916;-66
2022/04/24 12:55:42;;;;;;;;;;;19.60;88.90;;;;;;5093519;28;20010;-60
2022/04/24 12:58:14;;;;;;;;;;;19.60;90.00;;;;;;5092986;28;20003;-60
2022/04/24 13:00:43;;;;;;;;;;;19.10;89.20;;;;;;5093221;28;19920;-66
2022/04/24 13:03:09;;;;;;;;;;;19.10;91.20;;;;;;5093410;28;19963;-60
2022/04/24 13:05:37;;;;;;;;;;;19.50;91.10;;;;;;5093201;28;19978;-66
2022/04/24 13:08:02;;;;;;;;;;;19.50;90.20;;;;;;5093292;28;20350;-60
2022/04/24 13:10:28;;;;;;;;;;;19.60;89.30;;;;;;5091391;28;19926;-59
2022/04/24 13:13:00;;;;;;;;;;;19.80;90.40;;;;;;5093147;28;20332;-59
2022/04/24 13:15:26;;;;;;;;;;;19.30;90.10;;;;;;5093554;28;19916;-65
2022/04/24 13:18:07;;;;;;;;;;;19.20;89.50;;;;;;5092561;28;19916;-66
2022/04/24 13:20:40;;;;;;;;;;;19.50;90.20;;;;;;5094159;28;20346;-65
2022/04/24 13:23:07;;;;;;;;;;;19.30;90.10;;;;;;5093725;28;19916;-60
2022/04/24 13:25:34;;;;;;;;;;;19.20;91.00;;;;;;5092186;28;19920;-60
2022/04/24 13:27:59;;;;;;;;;;;19.10;89.60;;;;;;5093055;28;19916;-65
2022/04/24 13:30:25;;;;;;;;;;;19.30;90.20;;;;;;5092755;28;20025;-60
2022/04/24 13:32:51;;;;;;;;;;;19.10;90.20;;;;;;5091611;28;19927;-60
2022/04/24 13:35:16;;;;;;;;;;;18.90;89.70;;;;;;5091657;28;20658;-60
2022/04/24 13:40:26;;;;;;;;;;;19.10;90.20;;;;;;5092922;28;20282;-66
2022/04/24 13:42:52;;;;;;;;;;;19.30;89.30;;;;;;5092729;28;19916;-66
2022/04/24 13:45:17;;;;;;;;;;;18.90;88.70;;;;;;5092780;28;19926;-61
2022/04/24 13:47:43;;;;;;;;;;;19.00;89.60;;;;;;5090772;28;20042;-61
2022/04/24 13:50:09;;;;;;;;;;;19.20;90.10;;;;;;5092557;28;19964;-61
2022/04/24 13:52:34;;;;;;;;;;;19.40;89.80;;;;;;5096595;28;19920;-61
2022/04/24 13:55:00;;;;;;;;;;;19.90;90.80;;;;;;5099310;28;20389;-67
2022/04/24 13:57:25;;;;;;;;;;;19.40;90.00;;;;;;5099650;28;19915;-61
2022/04/24 13:59:51;;;;;;;;;;;19.20;88.80;;;;;;5099068;28;19916;-66
2022/04/24 14:02:16;;;;;;;;;;;18.80;90.20;;;;;;5099445;28;19938;-66
2022/04/24 14:04:42;;;;;;;;;;;19.10;91.10;;;;;;5099849;28;19920;-66
2022/04/24 14:07:08;;;;;;;;;;;19.00;90.40;;;;;;5100106;28;19989;-61
2022/04/24 14:09:34;;;;;;;;;;;19.10;90.90;;;;;;5098958;28;20328;-60
2022/04/24 14:12:00;;;;;;;;;;;19.00;91.40;;;;;;5098488;28;19965;-61
2022/04/24 14:14:26;;;;;;;;;;;18.90;90.60;;;;;;5098818;28;19915;-61
2022/04/24 14:16:51;;;;;;;;;;;18.80;90.40;;;;;;5098592;28;20286;-61
2022/04/24 14:19:17;;;;;;;;;;;18.60;92.50;;;;;;5099666;28;19980;-67
2022/04/24 14:21:42;;;;;;;;;;;18.80;90.80;;;;;;5099361;28;20320;-65
2022/04/24 14:24:08;;;;;;;;;;;19.00;91.40;;;;;;5099660;28;19923;-66